KEVM

Details ICAO KEVM
Name EVELETH VIRGINIA MUNI
Region United States
Timezone America/Chicago (UTC-6.0)
Plans Departing 3
Arriving 2
Stats Elevation 1,378 ft / 420 m (AMSL)
Location 47.424577° -92.497596°
Runways 3
Magnetic Variation 0.754° W
Sunrise 2017-12-16 13:53:06 UTC / 2017-12-16 07:53:06 Local
Sunset 2017-12-16 22:21:09 UTC / 2017-12-16 16:21:09 Local
Advertisement - Login to hide

Runways

ID Width Length Bearing (true) Bearing (mag) Surface Threshold Offset Overrun Length
05 110 ft / 34 m 2,737 ft / 834 m 50.97° 51.72° Grass 0 ft / 0 m 0 ft / 0 m
09 100 ft / 30 m 4,204 ft / 1,281 m 94.28° 95.03° Asphalt 0 ft / 0 m 0 ft / 0 m
14 100 ft / 30 m 2,503 ft / 763 m 139.37° 140.12° Asphalt 0 ft / 0 m 0 ft / 0 m
23 110 ft / 34 m 2,737 ft / 834 m 230.97° 231.72° Grass 885 ft / 270 m 0 ft / 0 m
27 100 ft / 30 m 4,204 ft / 1,281 m 274.29° 275.04° Asphalt 0 ft / 0 m 0 ft / 0 m
32 100 ft / 30 m 2,503 ft / 763 m 319.37° 320.12° Asphalt 0 ft / 0 m 0 ft / 0 m

Map

Weather


0- 5 10 15 20 25 30 35+ Temperature / ° C

Clouds and Precipitation
Forecast for 2017-12-17 00:00 UTC. Updated 2 hours ago

Ground ~20,000 ft ~40,000 ft Winds

METAR

KEVM 170035Z AUTO 15003KT 10SM OVC020 M07/M10 A3003 RMK AO2 T10671105

TAF

Not found

Frequencies

Unicom 122.70 MHz CTAF/UNICOM
Approach 125.45 MHz DULUTH APP/DEP
Warning: Do not use this data for real-world aviation or navigation. No guarantee of current accuracy is given.